createdAt,value
2022-10-28T00:00:47.681Z,99856.36
2022-10-28T00:03:14.646Z,99855.16
2022-10-28T00:05:41.584Z,99857.44
2022-10-28T00:08:08.509Z,99856.98
2022-10-28T00:10:35.671Z,99855.05
2022-10-28T00:13:02.726Z,99856.39
2022-10-28T00:15:30.190Z,99857.57
2022-10-28T00:17:57.428Z,99854.85
2022-10-28T00:20:24.481Z,99862.86
2022-10-28T00:22:53.829Z,99858.98
2022-10-28T00:25:24.918Z,99860.92
2022-10-28T00:27:53.050Z,99856.34
2022-10-28T00:30:20.716Z,99854.58
2022-10-28T00:32:47.875Z,99856.19
2022-10-28T00:35:15.253Z,99853.27
2022-10-28T00:37:42.210Z,99849.52
2022-10-28T00:40:10.847Z,99852.39
2022-10-28T00:42:38.746Z,99853.86
2022-10-28T00:45:06.350Z,99854.27
2022-10-28T00:47:40.253Z,99854.69
2022-10-28T00:50:26.943Z,99854.16
2022-10-28T00:52:56.611Z,99851.29
2022-10-28T00:55:23.589Z,99851.54
2022-10-28T00:57:51.553Z,99849.94
2022-10-28T01:00:19.008Z,99844.89
2022-10-28T01:02:47.588Z,99846.67
2022-10-28T01:05:17.198Z,99843.36
2022-10-28T01:07:44.844Z,99841.06
2022-10-28T01:10:14.443Z,99840.33
2022-10-28T01:13:11.413Z,99842.61
2022-10-28T01:15:45.235Z,99842.85
2022-10-28T01:18:31.127Z,99839.77
2022-10-28T01:21:17.063Z,99837.44
2022-10-28T01:23:44.353Z,99834.63
2022-10-28T01:26:40.464Z,99832.18
2022-10-28T01:29:30.752Z,99830.10
2022-10-28T01:32:18.362Z,99833.66
2022-10-28T01:34:45.439Z,99828.73
2022-10-28T01:37:54.410Z,99830.31
2022-10-28T01:40:27.737Z,99823.82
2022-10-28T01:43:04.241Z,99825.02
2022-10-28T01:45:35.908Z,99819.56
2022-10-28T01:48:09.094Z,99820.77
2022-10-28T01:50:57.287Z,99814.39
2022-10-28T01:53:27.490Z,99810.20
2022-10-28T01:55:55.633Z,99811.86
2022-10-28T01:58:24.905Z,99815.69
2022-10-28T02:00:51.954Z,99814.30
2022-10-28T02:03:18.995Z,99816.37
2022-10-28T02:05:50.603Z,99811.90
2022-10-28T02:08:22.777Z,99809.80
2022-10-28T02:11:08.684Z,99811.80
2022-10-28T02:13:55.504Z,99807.61
2022-10-28T02:16:34.633Z,99811.66
2022-10-28T02:19:03.606Z,99805.05
2022-10-28T02:21:36.830Z,99804.67
2022-10-28T02:24:31.904Z,99805.94
2022-10-28T02:27:14.056Z,99803.27
2022-10-28T02:29:45.763Z,99804.05
2022-10-28T02:32:18.856Z,99803.83
2022-10-28T02:34:47.068Z,99809.01
2022-10-28T02:37:43.874Z,99804.77
2022-10-28T02:40:14.686Z,99803.25
2022-10-28T02:42:45.702Z,99799.14
2022-10-28T02:45:15.733Z,99797.82
2022-10-28T02:47:46.691Z,99799.52
2022-10-28T02:50:17.449Z,99802.29
2022-10-28T02:52:47.030Z,99805.54
2022-10-28T02:55:14.199Z,99805.66
2022-10-28T02:57:42.835Z,99800.27
2022-10-28T03:00:12.092Z,99803.02
2022-10-28T03:02:39.052Z,99801.53
2022-10-28T03:05:06.404Z,99806.41
2022-10-28T03:07:34.055Z,99807.58
2022-10-28T03:10:01.182Z,99807.96
2022-10-28T03:12:28.352Z,99801.73
2022-10-28T03:14:58.323Z,99795.39
2022-10-28T03:17:25.310Z,99799.46
2022-10-28T03:19:53.813Z,99798.27
2022-10-28T03:22:20.992Z,99799.34
2022-10-28T03:24:47.946Z,99799.52
2022-10-28T03:27:14.804Z,99800.14
2022-10-28T03:29:45.883Z,99796.80
2022-10-28T03:32:13.803Z,99794.30
2022-10-28T03:34:41.964Z,99792.14
2022-10-28T03:37:09.081Z,99787.48
2022-10-28T03:39:36.083Z,99788.15
2022-10-28T03:42:03.651Z,99785.59
2022-10-28T03:44:30.809Z,99784.60
2022-10-28T03:46:58.477Z,99788.34
2022-10-28T03:49:26.054Z,99783.81
2022-10-28T03:51:52.970Z,99786.05
2022-10-28T03:54:19.974Z,99786.64
2022-10-28T03:56:46.980Z,99786.63
2022-10-28T03:59:16.382Z,99786.89
2022-10-28T04:01:46.781Z,99791.89
2022-10-28T04:04:13.816Z,99787.59
2022-10-28T04:06:41.209Z,99782.94
2022-10-28T04:09:08.409Z,99781.06
2022-10-28T04:11:35.550Z,99778.09
2022-10-28T04:14:02.965Z,99783.15
2022-10-28T04:16:30.201Z,99778.87
2022-10-28T04:19:03.807Z,99781.66
2022-10-28T04:21:30.857Z,99778.83
2022-10-28T04:23:57.838Z,99777.96
2022-10-28T04:26:25.254Z,99779.35
2022-10-28T04:28:52.299Z,99782.79
2022-10-28T04:31:19.414Z,99781.26
2022-10-28T04:33:46.501Z,99785.90
2022-10-28T04:36:13.955Z,99785.93
2022-10-28T04:38:40.940Z,99783.17
2022-10-28T04:41:12.774Z,99780.78
2022-10-28T04:43:40.705Z,99783.61
2022-10-28T04:46:07.868Z,99780.58
2022-10-28T04:48:35.067Z,99787.49
2022-10-28T04:51:02.127Z,99790.23
2022-10-28T04:53:29.182Z,99788.19
2022-10-28T04:55:59.559Z,99787.88
2022-10-28T04:58:27.754Z,99788.27
2022-10-28T05:00:54.659Z,99785.85
2022-10-28T05:03:21.728Z,99787.67
2022-10-28T05:05:48.900Z,99785.61
2022-10-28T05:08:16.128Z,99783.95
2022-10-28T05:10:49.002Z,99784.91
2022-10-28T05:13:17.373Z,99781.12
2022-10-28T05:15:44.625Z,99777.85
2022-10-28T05:18:12.103Z,99782.08
2022-10-28T05:20:39.242Z,99784.85
2022-10-28T05:23:07.876Z,99781.17
2022-10-28T05:25:35.489Z,99785.45
2022-10-28T05:28:02.507Z,99787.90
2022-10-28T05:30:29.723Z,99785.27
2022-10-28T05:33:03.310Z,99786.06
2022-10-28T05:35:33.315Z,99785.92
2022-10-28T05:38:00.414Z,99785.71
2022-10-28T05:40:27.692Z,99782.48
2022-10-28T05:42:54.953Z,99781.78
2022-10-28T05:45:25.664Z,99779.37
2022-10-28T05:47:53.254Z,99776.83
2022-10-28T05:50:20.715Z,99778.70
2022-10-28T05:52:55.562Z,99779.17
2022-10-28T05:55:24.047Z,99780.16
2022-10-28T05:57:52.495Z,99781.86
2022-10-28T06:00:21.331Z,99778.29
2022-10-28T06:02:48.350Z,99774.72
2022-10-28T06:05:17.077Z,99777.80
2022-10-28T06:07:45.317Z,99772.95
2022-10-28T06:10:12.435Z,99770.63
2022-10-28T06:12:38.524Z,99771.05
2022-10-28T06:15:06.270Z,99767.14
2022-10-28T06:17:35.031Z,99766.22
2022-10-28T06:20:02.415Z,99773.67
2022-10-28T06:22:29.724Z,99774.09
2022-10-28T06:24:56.909Z,99772.64
2022-10-28T06:27:23.998Z,99773.23
2022-10-28T06:29:51.263Z,99773.70
2022-10-28T06:32:19.013Z,99772.90
2022-10-28T06:34:46.038Z,99770.11
2022-10-28T06:37:13.297Z,99775.40
2022-10-28T06:39:43.094Z,99775.88
2022-10-28T06:42:10.380Z,99772.94
2022-10-28T06:44:37.827Z,99776.77
2022-10-28T06:47:06.402Z,99780.16
2022-10-28T06:49:33.913Z,99781.92
2022-10-28T06:52:01.128Z,99780.52
2022-10-28T06:54:28.141Z,99783.25
2022-10-28T06:56:55.252Z,99781.79
2022-10-28T06:59:22.298Z,99781.18
2022-10-28T07:01:49.533Z,99786.38
2022-10-28T07:04:16.629Z,99786.48
2022-10-28T07:06:45.443Z,99783.33
2022-10-28T07:09:15.489Z,99781.44
2022-10-28T07:11:45.729Z,99778.00
2022-10-28T07:14:13.317Z,99775.67
2022-10-28T07:16:42.277Z,99775.65
2022-10-28T07:19:10.137Z,99773.42
2022-10-28T07:21:37.400Z,99768.30
2022-10-28T07:24:04.813Z,99768.65
2022-10-28T07:26:32.216Z,99770.57
2022-10-28T07:28:59.263Z,99768.11
2022-10-28T07:31:27.835Z,99775.32
2022-10-28T07:33:54.843Z,99772.81
2022-10-28T07:36:22.797Z,99774.12
2022-10-28T07:38:51.929Z,99771.83
2022-10-28T07:41:20.021Z,99765.40
2022-10-28T07:43:47.071Z,99763.05
2022-10-28T07:46:18.486Z,99765.30
2022-10-28T07:48:46.180Z,99765.23
2022-10-28T07:51:14.353Z,99762.88
2022-10-28T07:53:43.899Z,99761.35
2022-10-28T07:56:13.678Z,99759.39
2022-10-28T07:58:42.176Z,99761.52
2022-10-28T08:01:10.076Z,99755.85
2022-10-28T08:03:39.031Z,99760.18
2022-10-28T08:06:11.306Z,99751.13
2022-10-28T08:08:38.448Z,99751.88
2022-10-28T08:11:14.208Z,99751.44
2022-10-28T08:13:41.184Z,99751.00
2022-10-28T08:16:08.517Z,99748.48
2022-10-28T08:18:36.975Z,99746.59
2022-10-28T08:21:07.306Z,99745.69
2022-10-28T08:23:34.508Z,99747.45
2022-10-28T08:26:02.294Z,99746.77
2022-10-28T08:28:29.650Z,99745.09
2022-10-28T08:31:09.205Z,99739.61
2022-10-28T08:33:38.747Z,99741.93
2022-10-28T08:36:07.183Z,99738.84
2022-10-28T08:38:34.249Z,99738.02
2022-10-28T08:41:18.536Z,99737.28
2022-10-28T08:44:04.698Z,99739.18
2022-10-28T08:46:45.107Z,99735.69
2022-10-28T08:49:13.880Z,99738.70
2022-10-28T08:51:42.583Z,99734.73
2022-10-28T08:54:41.950Z,99740.52
2022-10-28T08:57:17.803Z,99739.76
2022-10-28T08:59:45.813Z,99740.71
2022-10-28T09:02:22.182Z,99740.94
2022-10-28T09:05:02.650Z,99738.39
2022-10-28T09:07:29.856Z,99738.33
2022-10-28T09:09:56.873Z,99733.40
2022-10-28T09:12:46.261Z,99726.48
2022-10-28T09:15:29.033Z,99725.58
2022-10-28T09:18:10.432Z,99725.17
2022-10-28T09:20:54.653Z,99720.04
2022-10-28T09:23:28.865Z,99719.91
2022-10-28T09:26:41.033Z,99720.77
2022-10-28T09:29:20.137Z,99716.48
2022-10-28T09:31:56.003Z,99717.52
2022-10-28T09:34:47.324Z,99713.85
2022-10-28T09:37:18.498Z,99707.92
2022-10-28T09:39:48.494Z,99702.45
2022-10-28T09:42:27.846Z,99702.58
2022-10-28T09:45:01.931Z,99698.19
2022-10-28T09:47:37.714Z,99694.27
2022-10-28T09:50:08.494Z,99690.02
2022-10-28T09:52:43.365Z,99690.23
2022-10-28T09:55:19.006Z,99690.63
2022-10-28T09:57:46.161Z,99686.04
2022-10-28T10:00:14.152Z,99683.34
2022-10-28T10:02:42.853Z,99677.73
2022-10-28T10:05:17.008Z,99676.34
2022-10-28T10:07:53.972Z,99676.03
2022-10-28T10:10:24.847Z,99676.48
2022-10-28T10:12:52.876Z,99675.64
2022-10-28T10:15:33.302Z,99671.53
2022-10-28T10:18:01.014Z,99669.14
2022-10-28T10:20:28.283Z,99664.59
2022-10-28T10:22:56.515Z,99665.08
2022-10-28T10:25:30.439Z,99663.23
2022-10-28T10:27:57.917Z,99660.86
2022-10-28T10:30:29.957Z,99653.48
2022-10-28T10:32:57.463Z,99649.42
2022-10-28T10:35:26.687Z,99644.29
2022-10-28T10:37:55.615Z,99639.52
2022-10-28T10:40:32.628Z,99637.02
2022-10-28T10:43:18.092Z,99633.52
2022-10-28T10:45:51.805Z,99633.74
2022-10-28T10:48:19.039Z,99633.30
2022-10-28T10:50:47.317Z,99631.30
2022-10-28T10:53:18.781Z,99628.41
2022-10-28T10:55:50.035Z,99626.80
2022-10-28T10:58:21.169Z,99629.58
2022-10-28T11:00:49.775Z,99627.64
2022-10-28T11:03:25.895Z,99627.21
2022-10-28T11:06:18.208Z,99624.29
2022-10-28T11:08:44.366Z,99614.00
2022-10-28T11:11:19.205Z,99609.37
2022-10-28T11:13:48.517Z,99608.86
2022-10-28T11:16:23.364Z,99608.24
2022-10-28T11:18:52.116Z,99609.06
2022-10-28T11:22:04.407Z,99606.89
2022-10-28T11:24:55.602Z,99608.39
2022-10-28T11:27:32.976Z,99603.77
2022-10-28T11:30:00.928Z,99594.18
2022-10-28T11:32:40.250Z,99589.33
2022-10-28T11:35:16.007Z,99584.80
2022-10-28T11:38:08.748Z,99581.77
2022-10-28T11:41:00.891Z,99578.46
2022-10-28T11:43:36.568Z,99578.60
2022-10-28T11:46:26.748Z,99585.14
2022-10-28T11:49:12.135Z,99584.81
2022-10-28T11:51:57.659Z,99583.08
2022-10-28T11:54:45.098Z,99576.88
2022-10-28T11:57:16.376Z,99570.97
2022-10-28T12:00:29.559Z,99565.98
2022-10-28T12:03:25.903Z,99562.67
2022-10-28T12:06:05.087Z,99569.77
2022-10-28T12:08:50.983Z,99564.81
2022-10-28T12:11:46.894Z,99562.14
2022-10-28T12:14:34.495Z,99561.21
2022-10-28T12:17:14.821Z,99559.38
2022-10-28T12:20:10.436Z,99552.09
2022-10-28T12:22:58.795Z,99546.20
2022-10-28T12:25:31.415Z,99539.96
2022-10-28T12:28:21.019Z,99534.27
2022-10-28T12:30:49.316Z,99531.98
2022-10-28T12:33:28.973Z,99529.70
2022-10-28T12:36:13.388Z,99520.66
2022-10-28T12:39:12.400Z,99518.98
2022-10-28T12:41:45.068Z,99515.18
2022-10-28T12:44:14.924Z,99506.77
2022-10-28T12:47:03.296Z,99511.61
2022-10-28T12:49:45.779Z,99512.56
2022-10-28T12:52:18.840Z,99508.22
2022-10-28T12:54:57.120Z,99501.21
2022-10-28T12:57:24.279Z,99500.21
2022-10-28T13:00:25.939Z,99500.59
2022-10-28T13:03:01.821Z,99498.89
2022-10-28T13:05:37.473Z,99497.40
2022-10-28T13:12:03.216Z,99499.70
2022-10-28T13:15:15.597Z,99506.98
2022-10-28T13:18:09.979Z,99511.34
2022-10-28T13:21:14.963Z,99504.10
2022-10-28T13:23:44.162Z,99501.99
2022-10-28T13:26:26.463Z,99492.91
2022-10-28T13:28:58.295Z,99497.78
2022-10-28T13:31:45.217Z,99497.90
2022-10-28T13:34:13.934Z,99496.30
2022-10-28T13:36:45.569Z,99502.23
2022-10-28T13:39:43.543Z,99497.17
2022-10-28T13:42:13.487Z,99504.27
2022-10-28T13:44:50.797Z,99501.69
2022-10-28T13:47:17.760Z,99504.60
2022-10-28T13:50:08.621Z,99501.83
2022-10-28T13:52:42.274Z,99505.00
2022-10-28T13:55:21.915Z,99499.44
2022-10-28T13:57:51.429Z,99498.98
2022-10-28T14:00:18.521Z,99500.23
2022-10-28T14:03:01.560Z,99501.55
2022-10-28T14:05:32.462Z,99500.81
2022-10-28T14:08:22.458Z,99499.49
2022-10-28T14:11:00.475Z,99500.30
2022-10-28T14:13:27.402Z,99497.23
2022-10-28T14:16:26.571Z,99497.65
2022-10-28T14:19:03.454Z,99496.76
2022-10-28T14:21:59.174Z,99495.08
2022-10-28T14:24:33.297Z,99491.02
2022-10-28T14:27:10.026Z,99487.92
2022-10-28T14:29:49.239Z,99489.17
2022-10-28T14:32:31.691Z,99487.45
2022-10-28T14:35:11.010Z,99484.63
2022-10-28T14:38:02.561Z,99488.14
2022-10-28T14:40:36.220Z,99487.98
2022-10-28T14:43:15.914Z,99487.38
2022-10-28T14:45:52.430Z,99485.48
2022-10-28T14:48:46.264Z,99483.59
2022-10-28T14:51:18.346Z,99487.84
2022-10-28T14:53:45.555Z,99486.29
2022-10-28T14:58:50.248Z,99480.27
2022-10-28T15:01:17.368Z,99476.65
2022-10-28T15:03:46.939Z,99476.45
2022-10-28T15:06:37.468Z,99474.90
2022-10-28T15:09:22.311Z,99477.52
2022-10-28T15:11:52.654Z,99472.85
2022-10-28T15:14:29.595Z,99474.45
2022-10-28T15:16:58.364Z,99473.78
2022-10-28T15:19:27.432Z,99466.96
2022-10-28T15:22:04.426Z,99467.89
2022-10-28T15:24:31.568Z,99465.65
2022-10-28T15:26:58.585Z,99468.31
2022-10-28T15:29:25.699Z,99468.94
2022-10-28T15:32:13.881Z,99469.89
2022-10-28T15:34:41.320Z,99470.21
2022-10-28T15:37:08.327Z,99471.62
2022-10-28T15:39:35.823Z,99469.06
2022-10-28T15:42:02.911Z,99464.96
2022-10-28T15:44:49.697Z,99466.52
2022-10-28T15:47:32.803Z,99467.72
2022-10-28T15:50:17.360Z,99464.33
2022-10-28T15:52:48.363Z,99466.81
2022-10-28T15:55:18.317Z,99465.21
2022-10-28T15:57:48.032Z,99464.00
2022-10-28T16:00:20.722Z,99467.64
2022-10-28T16:02:55.845Z,99471.91
2022-10-28T16:05:32.609Z,99470.92
2022-10-28T16:08:00.976Z,99467.55
2022-10-28T16:10:28.748Z,99460.59
2022-10-28T16:12:55.656Z,99458.05
2022-10-28T16:15:22.647Z,99466.38
2022-10-28T16:17:50.386Z,99466.76
2022-10-28T16:20:21.974Z,99469.03
2022-10-28T16:22:49.133Z,99470.35
2022-10-28T16:25:20.716Z,99474.86
2022-10-28T16:27:51.362Z,99470.69
2022-10-28T16:30:18.609Z,99477.73
2022-10-28T16:32:47.544Z,99475.13
2022-10-28T16:35:16.430Z,99475.77
2022-10-28T16:37:46.519Z,99477.90
2022-10-28T16:40:37.538Z,99477.27
2022-10-28T16:43:04.209Z,99473.17
2022-10-28T16:45:31.506Z,99466.27
2022-10-28T16:48:01.322Z,99466.77
2022-10-28T16:50:28.299Z,99467.27
2022-10-28T16:52:56.629Z,99463.75
2022-10-28T16:55:23.994Z,99455.52
2022-10-28T16:57:50.985Z,99454.25
2022-10-28T17:00:18.588Z,99460.68
2022-10-28T17:02:50.722Z,99464.61
2022-10-28T17:05:22.471Z,99466.95
2022-10-28T17:07:50.111Z,99465.55
2022-10-28T17:10:17.445Z,99469.66
2022-10-28T17:12:44.737Z,99468.28
2022-10-28T17:15:17.938Z,99471.09
2022-10-28T17:17:49.396Z,99465.05
2022-10-28T17:20:16.704Z,99465.05
2022-10-28T17:22:44.420Z,99466.83
2022-10-28T17:25:11.388Z,99463.06
2022-10-28T17:27:39.259Z,99465.25
2022-10-28T17:30:07.277Z,99463.73
2022-10-28T17:32:35.336Z,99465.96
2022-10-28T17:35:02.571Z,99469.48
2022-10-28T17:37:30.479Z,99469.30
2022-10-28T17:39:57.448Z,99469.98
2022-10-28T17:42:24.894Z,99470.69
2022-10-28T17:44:52.290Z,99470.87
2022-10-28T17:47:22.284Z,99472.63
2022-10-28T17:49:49.476Z,99470.59
2022-10-28T17:52:17.121Z,99473.15
2022-10-28T17:54:45.328Z,99473.34
2022-10-28T17:57:12.458Z,99474.71
2022-10-28T17:59:40.428Z,99473.36
2022-10-28T18:02:07.525Z,99470.40
2022-10-28T18:04:36.409Z,99469.67
2022-10-28T18:07:03.617Z,99466.77
2022-10-28T18:09:32.360Z,99465.35
2022-10-28T18:12:02.064Z,99462.41
2022-10-28T18:14:29.689Z,99464.23
2022-10-28T18:16:56.928Z,99464.30
2022-10-28T18:19:25.441Z,99464.41
2022-10-28T18:21:53.077Z,99464.66
2022-10-28T18:24:23.349Z,99464.93
2022-10-28T18:26:54.059Z,99466.52
2022-10-28T18:29:21.018Z,99465.00
2022-10-28T18:31:48.201Z,99461.84
2022-10-28T18:34:16.574Z,99461.23
2022-10-28T18:36:45.957Z,99465.48
2022-10-28T18:39:13.138Z,99466.54
2022-10-28T18:41:42.815Z,99466.05
2022-10-28T18:44:14.634Z,99467.06
2022-10-28T18:46:42.527Z,99470.65
2022-10-28T18:49:09.475Z,99467.08
2022-10-28T18:51:36.861Z,99469.68
2022-10-28T18:54:04.489Z,99464.06
2022-10-28T18:56:31.540Z,99462.34
2022-10-28T18:58:58.927Z,99464.23
2022-10-28T19:01:27.626Z,99467.54
2022-10-28T19:03:59.347Z,99467.87
2022-10-28T19:06:29.919Z,99465.24
2022-10-28T19:08:59.583Z,99463.25
2022-10-28T19:11:31.274Z,99463.95
2022-10-28T19:13:59.374Z,99464.70
2022-10-28T19:16:27.898Z,99467.25
2022-10-28T19:18:57.194Z,99469.23
2022-10-28T19:21:24.848Z,99467.73
2022-10-28T19:23:52.383Z,99470.21
2022-10-28T19:26:19.825Z,99471.84
2022-10-28T19:28:48.374Z,99470.13
2022-10-28T19:31:17.342Z,99477.02
2022-10-28T19:33:45.456Z,99481.86
2022-10-28T19:36:25.321Z,99480.55
2022-10-28T19:38:56.191Z,99479.08
2022-10-28T19:41:29.801Z,99483.31
2022-10-28T19:43:59.159Z,99482.50
2022-10-28T19:46:30.397Z,99485.79
2022-10-28T19:48:58.647Z,99488.30
2022-10-28T19:51:33.587Z,99489.39
2022-10-28T19:54:02.271Z,99485.65
2022-10-28T19:56:30.304Z,99487.54
2022-10-28T19:58:58.509Z,99485.01
2022-10-28T20:01:27.746Z,99479.29
2022-10-28T20:03:55.123Z,99480.39
2022-10-28T20:06:23.984Z,99481.61
2022-10-28T20:08:52.088Z,99479.38
2022-10-28T20:11:25.766Z,99476.09
2022-10-28T20:14:01.782Z,99481.31
2022-10-28T20:16:29.062Z,99483.71
2022-10-28T20:18:57.467Z,99482.27
2022-10-28T20:21:29.558Z,99483.21
2022-10-28T20:23:57.192Z,99481.39
2022-10-28T20:26:28.103Z,99476.86
2022-10-28T20:28:55.222Z,99469.73
2022-10-28T20:33:52.784Z,99466.41
2022-10-28T20:36:33.015Z,99467.16
2022-10-28T20:39:23.290Z,99465.11
2022-10-28T20:41:51.345Z,99467.16
2022-10-28T20:44:18.484Z,99470.45
2022-10-28T20:46:48.209Z,99467.64
2022-10-28T20:49:15.634Z,99470.11
2022-10-28T20:51:42.757Z,99473.73
2022-10-28T20:54:09.817Z,99479.28
2022-10-28T20:56:37.880Z,99473.33
2022-10-28T20:59:05.122Z,99475.49
2022-10-28T21:01:35.103Z,99474.70
2022-10-28T21:04:05.354Z,99480.67
2022-10-28T21:06:33.363Z,99477.98
2022-10-28T21:09:00.432Z,99478.05
2022-10-28T21:11:28.265Z,99476.24
2022-10-28T21:13:59.355Z,99477.64
2022-10-28T21:16:28.442Z,99473.61
2022-10-28T21:18:55.598Z,99478.52
2022-10-28T21:21:24.175Z,99473.81
2022-10-28T21:23:52.744Z,99473.36
2022-10-28T21:26:19.748Z,99468.88
2022-10-28T21:28:51.895Z,99470.61
2022-10-28T21:31:19.598Z,99473.02
2022-10-28T21:36:22.226Z,99469.66
2022-10-28T21:38:53.000Z,99469.00
2022-10-28T21:41:20.457Z,99464.27
2022-10-28T21:43:49.290Z,99456.92
2022-10-28T21:46:17.223Z,99455.69
2022-10-28T21:48:45.541Z,99458.77
2022-10-28T21:51:15.002Z,99454.59
2022-10-28T21:53:43.993Z,99451.42
2022-10-28T21:56:18.300Z,99447.25
2022-10-28T21:58:49.205Z,99437.88
2022-10-28T22:01:21.889Z,99430.70
2022-10-28T22:03:49.687Z,99427.02
2022-10-28T22:06:16.718Z,99428.02
2022-10-28T22:08:43.735Z,99427.95
2022-10-28T22:11:15.643Z,99434.99
2022-10-28T22:13:42.761Z,99433.78
2022-10-28T22:16:18.938Z,99430.15
2022-10-28T22:18:46.633Z,99428.09
2022-10-28T22:21:25.637Z,99430.48
2022-10-28T22:23:52.921Z,99429.02
2022-10-28T22:26:24.689Z,99431.10
2022-10-28T22:28:53.114Z,99434.02
2022-10-28T22:31:25.365Z,99435.54
2022-10-28T22:33:52.926Z,99434.20
2022-10-28T22:36:22.212Z,99434.88
2022-10-28T22:38:49.412Z,99433.75
2022-10-28T22:41:18.022Z,99436.58
2022-10-28T22:43:58.424Z,99438.77
2022-10-28T22:46:27.768Z,99438.13
2022-10-28T22:48:54.787Z,99438.33
2022-10-28T22:51:21.937Z,99429.64
2022-10-28T22:53:51.219Z,99431.85
2022-10-28T22:56:20.749Z,99432.04
2022-10-28T22:58:48.856Z,99432.58
2022-10-28T23:01:17.246Z,99433.35
2022-10-28T23:03:46.321Z,99429.94
2022-10-28T23:06:14.909Z,99433.65
2022-10-28T23:08:42.440Z,99431.70
2022-10-28T23:11:13.424Z,99431.35
2022-10-28T23:13:41.790Z,99430.02
2022-10-28T23:16:13.983Z,99428.17
2022-10-28T23:18:41.166Z,99424.39
2022-10-28T23:21:21.500Z,99423.61
2022-10-28T23:23:55.476Z,99418.52
2022-10-28T23:26:22.554Z,99422.52
2022-10-28T23:28:51.131Z,99417.66
2022-10-28T23:31:18.927Z,99413.42
2022-10-28T23:33:46.135Z,99418.38
2022-10-28T23:36:13.892Z,99418.58
2022-10-28T23:38:41.097Z,99410.35
2022-10-28T23:41:10.152Z,99405.38
2022-10-28T23:43:37.948Z,99398.58
2022-10-28T23:46:05.766Z,99399.83
2022-10-28T23:48:32.911Z,99399.80
2022-10-28T23:50:59.888Z,99405.30
2022-10-28T23:55:58.929Z,99400.88
2022-10-28T23:58:26.134Z,99406.19
